Time;durP1;ratioP1;P1;durP2;ratioP2;P2;SDS_P1;SDS_P2;PMS_P1;PMS_P2;Temp;Humidity;BMP_temperature;BMP_pressure;BME280_temperature;BME280_humidity;BME280_pressure;Samples;Min_cycle;Max_cycle;Signal;HPM_P1;HPM_P2
2023/10/22 00:00:44;;;;;;;5.97;1.20;;;9.30;99.90;;;;;;5032053;28;20261;-79
2023/10/22 00:03:10;;;;;;;5.30;0.90;;;11.00;99.90;;;;;;5035384;28;20450;-79
2023/10/22 00:05:36;;;;;;;4.27;0.87;;;9.10;99.90;;;;;;5056313;28;20178;-78
2023/10/22 00:08:02;;;;;;;3.50;1.10;;;9.00;99.90;;;;;;5027000;28;20178;-78
2023/10/22 00:10:27;;;;;;;4.40;1.20;;;9.00;99.90;;;;;;5036735;28;20166;-78
2023/10/22 00:12:53;;;;;;;8.07;1.60;;;8.90;99.90;;;;;;5035386;28;20185;-79
2023/10/22 00:15:20;;;;;;;4.97;1.20;;;;;;;;;;5034282;28;20178;-79
2023/10/22 00:17:47;;;;;;;2.07;1.23;;;;;;;;;;5034761;28;20188;-81
2023/10/22 00:20:13;;;;;;;7.57;1.37;;;;;;;;;;5033651;28;20230;-80
2023/10/22 00:22:39;;;;;;;4.00;1.30;;;;;;;;;;5033366;28;20210;-81
2023/10/22 00:25:05;;;;;;;3.77;1.23;;;8.80;99.90;;;;;;5032443;28;20186;-81
2023/10/22 00:27:35;;;;;;;5.03;1.30;;;;;;;;;;5033484;28;20177;-80
2023/10/22 00:30:01;;;;;;;5.53;1.30;;;;;;;;;;5033517;28;20213;-79
2023/10/22 00:32:27;;;;;;;4.77;1.27;;;;;;;;;;5033955;28;20282;-78
2023/10/22 00:34:53;;;;;;;2.80;1.00;;;;;;;;;;5033064;28;20176;-78
2023/10/22 00:37:19;;;;;;;3.20;0.90;;;8.60;99.90;;;;;;5033475;28;20174;-78
2023/10/22 00:39:44;;;;;;;2.93;0.93;;;;;;;;;;5033473;28;20643;-79
2023/10/22 00:42:11;;;;;;;2.80;0.97;;;;;;;;;;5033530;28;20290;-78
2023/10/22 00:44:37;;;;;;;4.30;1.03;;;;;;;;;;5033339;28;20702;-79
2023/10/22 00:47:06;;;;;;;4.27;1.00;;;8.30;99.90;;;;;;5033487;28;20178;-78
2023/10/22 00:49:34;;;;;;;3.87;0.97;;;8.20;99.90;;;;;;5033541;28;20174;-78
2023/10/22 00:52:00;;;;;;;3.57;1.03;;;8.20;99.90;;;;;;5033391;28;20181;-79
2023/10/22 00:54:27;;;;;;;2.43;0.87;;;8.00;99.90;;;;;;5033307;28;20188;-79
2023/10/22 00:56:53;;;;;;;3.80;1.33;;;8.20;99.90;;;;;;5033620;28;20173;-78
2023/10/22 00:59:20;;;;;;;4.17;1.10;;;;;;;;;;5032947;28;20236;-79
2023/10/22 01:01:46;;;;;;;2.27;0.90;;;;;;;;;;5015475;28;20237;-79
2023/10/22 01:04:12;;;;;;;6.07;1.03;;;;;;;;;;5033243;28;20181;-77
2023/10/22 01:06:38;;;;;;;4.23;0.90;;;;;;;;;;5033406;28;20628;-79
2023/10/22 01:09:06;;;;;;;2.47;1.17;;;;;;;;;;5033074;28;20213;-77
2023/10/22 01:11:33;;;;;;;2.33;1.03;;;;;;;;;;5033380;28;20253;-81
2023/10/22 01:13:59;;;;;;;2.07;0.80;;;;;;;;;;5033356;28;20173;-79
2023/10/22 01:16:26;;;;;;;4.50;1.10;;;7.80;99.90;;;;;;5032952;28;20172;-78
2023/10/22 01:18:52;;;;;;;3.60;1.30;;;;;;;;;;5035116;28;20647;-81
2023/10/22 01:21:18;;;;;;;4.13;1.03;;;;;;;;;;5034924;28;20301;-80
2023/10/22 01:23:44;;;;;;;3.43;1.40;;;;;;;;;;4999213;28;20185;-80
2023/10/22 01:26:10;;;;;;;3.33;0.97;;;;;;;;;;5033021;28;20628;-80
2023/10/22 01:28:36;;;;;;;4.63;1.20;;;;;;;;;;5034512;28;20178;-80
2023/10/22 01:31:10;;;;;;;4.40;1.00;;;;;;;;;;5034372;28;20174;-80
2023/10/22 01:33:36;;;;;;;4.50;1.27;;;;;;;;;;5033037;28;20210;-79
2023/10/22 01:36:02;;;;;;;6.60;1.40;;;;;;;;;;5033097;28;20182;-80
2023/10/22 01:38:28;;;;;;;2.77;1.10;;;;;;;;;;5033009;28;20166;-80
2023/10/22 01:40:54;;;;;;;2.57;1.10;;;;;;;;;;5033568;28;20170;-79
2023/10/22 01:43:20;;;;;;;5.20;1.13;;;;;;;;;;5033974;28;20692;-80
2023/10/22 01:45:46;;;;;;;2.43;1.20;;;;;;;;;;5034185;28;20174;-79
2023/10/22 01:48:11;;;;;;;3.40;1.10;;;7.80;99.90;;;;;;5016998;28;20282;-79
2023/10/22 01:50:37;;;;;;;4.50;1.00;;;;;;;;;;5037569;28;20182;-79
2023/10/22 01:53:04;;;;;;;2.70;1.40;;;;;;;;;;5039048;28;20189;-79
2023/10/22 01:55:30;;;;;;;5.70;1.20;;;;;;;;;;5020736;28;20714;-78
2023/10/22 01:57:56;;;;;;;3.50;1.23;;;;;;;;;;5034107;28;20220;-78
2023/10/22 02:00:22;;;;;;;3.47;1.27;;;;;;;;;;5034645;28;20601;-78
2023/10/22 02:02:49;;;;;;;4.10;1.33;;;;;;;;;;5034613;28;20237;-78
2023/10/22 02:05:15;;;;;;;5.33;1.30;;;;;;;;;;5034264;28;20205;-79
2023/10/22 02:07:41;;;;;;;3.10;1.00;;;;;;;;;;5041896;28;20177;-78
2023/10/22 02:10:08;;;;;;;3.47;1.07;;;7.50;99.90;;;;;;5017651;28;20534;-78
2023/10/22 02:12:34;;;;;;;2.50;1.07;;;;;;;;;;5032226;28;20197;-78
2023/10/22 02:15:00;;;;;;;3.43;0.93;;;;;;;;;;5032012;28;20174;-78
2023/10/22 02:17:26;;;;;;;4.40;1.33;;;;;;;;;;5032134;28;20182;-78
2023/10/22 02:19:52;;;;;;;3.97;1.10;;;7.60;99.90;;;;;;5031987;28;20165;-78
2023/10/22 02:22:17;;;;;;;2.87;1.20;;;7.50;99.90;;;;;;5031817;28;20217;-79
2023/10/22 02:24:44;;;;;;;1.80;0.90;;;;;;;;;;5032103;28;20185;-78
2023/10/22 02:27:10;;;;;;;1.90;0.97;;;;;;;;;;5031301;28;20178;-78
2023/10/22 02:29:36;;;;;;;2.20;1.10;;;7.30;99.90;;;;;;5041981;28;20249;-78
2023/10/22 02:32:03;;;;;;;4.90;1.10;;;7.60;99.90;;;;;;5046097;28;20169;-77
2023/10/22 02:34:29;;;;;;;3.70;1.20;;;7.60;99.90;;;;;;5041405;28;20185;-79
2023/10/22 02:36:54;;;;;;;3.20;1.17;;;7.70;99.90;;;;;;5027312;28;20174;-79
2023/10/22 02:39:21;;;;;;;4.13;1.27;;;8.10;99.90;;;;;;5018084;28;20177;-80
2023/10/22 02:41:47;;;;;;;2.90;1.30;;;;;;;;;;5032432;28;20406;-80
2023/10/22 02:44:13;;;;;;;5.13;1.40;;;;;;;;;;5032434;28;20186;-80
2023/10/22 02:46:39;;;;;;;2.83;1.40;;;;;;;;;;5032169;28;20181;-80
2023/10/22 02:49:05;;;;;;;6.63;1.70;;;;;;;;;;5032077;28;20174;-80
2023/10/22 02:51:31;;;;;;;4.83;1.30;;;8.90;99.90;;;;;;5031658;28;20659;-80
2023/10/22 02:53:57;;;;;;;4.40;1.33;;;;;;;;;;5031606;28;20648;-80
2023/10/22 02:56:23;;;;;;;4.23;1.50;;;;;;;;;;5031717;28;20196;-80
2023/10/22 02:58:49;;;;;;;7.40;1.43;;;;;;;;;;5030822;28;20239;-80
2023/10/22 03:01:17;;;;;;;5.20;1.53;;;8.10;99.90;;;;;;5031421;28;20232;-82
2023/10/22 03:03:42;;;;;;;5.23;1.30;;;8.20;99.90;;;;;;5030957;28;20271;-81
2023/10/22 03:06:09;;;;;;;4.03;1.40;;;8.60;99.90;;;;;;5031409;28;20182;-81
2023/10/22 03:08:37;;;;;;;3.50;1.20;;;8.00;99.90;;;;;;5031359;28;20173;-82
2023/10/22 03:11:03;;;;;;;4.93;1.50;;;8.20;99.90;;;;;;5031443;28;20174;-81
2023/10/22 03:13:29;;;;;;;3.83;1.50;;;8.30;99.90;;;;;;5013376;28;20201;-81
2023/10/22 03:15:55;;;;;;;3.43;1.40;;;8.10;99.90;;;;;;5030654;28;20682;-82
2023/10/22 03:18:22;;;;;;;2.20;1.20;;;;;;;;;;5030826;28;20173;-82
2023/10/22 03:20:49;;;;;;;4.93;1.40;;;8.40;99.90;;;;;;5031022;28;20592;-82
2023/10/22 03:23:15;;;;;;;5.70;1.30;;;;;;;;;;5030903;28;20213;-82
2023/10/22 03:25:40;;;;;;;4.07;1.40;;;8.30;99.90;;;;;;5031334;28;20672;-83
2023/10/22 03:28:06;;;;;;;2.83;1.53;;;8.70;99.90;;;;;;5030793;28;20185;-82
2023/10/22 03:30:37;;;;;;;4.50;1.03;;;8.60;99.90;;;;;;5031287;28;20178;-81
2023/10/22 03:33:02;;;;;;;3.17;1.50;;;8.80;99.90;;;;;;5031619;28;20182;-80
2023/10/22 03:35:28;;;;;;;2.47;1.37;;;8.50;99.90;;;;;;5030828;28;20181;-82
2023/10/22 03:37:54;;;;;;;4.30;1.30;;;;;;;;;;5031672;28;20538;-81
2023/10/22 03:40:19;;;;;;;1.57;1.07;;;8.70;99.90;;;;;;5034027;28;20257;-80
2023/10/22 03:42:46;;;;;;;6.00;1.70;;;8.40;99.90;;;;;;5034793;28;20692;-80
2023/10/22 03:45:12;;;;;;;6.43;1.53;;;8.90;99.90;;;;;;5034803;28;20170;-79
2023/10/22 03:47:38;;;;;;;2.77;1.27;;;8.80;99.90;;;;;;5034473;28;20187;-80
2023/10/22 03:50:04;;;;;;;4.77;1.40;;;8.70;99.90;;;;;;5034236;28;20170;-81
2023/10/22 03:52:29;;;;;;;2.27;1.30;;;8.80;99.90;;;;;;5034511;28;20301;-79
2023/10/22 03:54:55;;;;;;;4.00;1.57;;;8.70;99.90;;;;;;5034584;28;20292;-80
2023/10/22 03:57:21;;;;;;;3.40;1.40;;;9.30;99.90;;;;;;5034282;28;20189;-80
2023/10/22 03:59:46;;;;;;;4.37;1.73;;;8.80;99.90;;;;;;5034318;28;20174;-81
2023/10/22 04:02:12;;;;;;;5.57;1.90;;;9.10;99.90;;;;;;5034467;28;20259;-79
2023/10/22 04:04:37;;;;;;;5.27;1.67;;;9.00;99.90;;;;;;5034598;28;20178;-81
2023/10/22 04:07:03;;;;;;;3.33;1.63;;;9.00;99.90;;;;;;5034699;28;20189;-81
2023/10/22 04:09:29;;;;;;;4.23;2.00;;;9.00;99.90;;;;;;5034682;28;20170;-82
2023/10/22 04:11:55;;;;;;;8.50;1.97;;;9.20;99.90;;;;;;5034008;28;20166;-81
2023/10/22 04:14:21;;;;;;;6.40;1.97;;;9.20;99.90;;;;;;5034324;28;20640;-81
2023/10/22 04:16:51;;;;;;;3.93;1.90;;;8.90;99.90;;;;;;5016550;28;20181;-81
2023/10/22 04:19:17;;;;;;;9.00;2.00;;;9.30;99.90;;;;;;5016319;28;20174;-81
2023/10/22 04:21:43;;;;;;;4.63;1.90;;;9.00;99.90;;;;;;5034042;28;20279;-81
2023/10/22 04:24:08;;;;;;;6.73;2.03;;;9.10;99.90;;;;;;5033880;28;20170;-79
2023/10/22 04:26:34;;;;;;;3.97;1.70;;;8.80;99.90;;;;;;5033883;28;20648;-80
2023/10/22 04:29:01;;;;;;;2.10;1.37;;;9.10;99.90;;;;;;5034235;28;20177;-81
2023/10/22 04:31:26;;;;;;;5.80;1.50;;;9.00;99.90;;;;;;5034312;28;20296;-80
2023/10/22 04:33:54;;;;;;;2.70;1.60;;;9.00;99.90;;;;;;5034134;28;20212;-81
2023/10/22 04:36:20;;;;;;;3.33;1.40;;;;;;;;;;5034008;28;20189;-80
2023/10/22 04:38:48;;;;;;;3.50;1.77;;;8.80;99.90;;;;;;5033998;28;20178;-81
2023/10/22 04:41:13;;;;;;;3.70;1.80;;;8.90;99.90;;;;;;5033813;28;20185;-81
2023/10/22 04:43:39;;;;;;;3.13;1.70;;;9.80;99.90;;;;;;5033652;28;20817;-80
2023/10/22 04:46:05;;;;;;;4.00;1.67;;;8.60;99.90;;;;;;5020397;28;20281;-80
2023/10/22 04:48:31;;;;;;;3.10;1.80;;;9.90;99.90;;;;;;5012635;28;20209;-80
2023/10/22 04:50:59;;;;;;;3.13;1.90;;;9.30;99.90;;;;;;5032820;28;20253;-80
2023/10/22 04:53:25;;;;;;;3.43;1.87;;;9.40;99.90;;;;;;5051572;28;20178;-80
2023/10/22 04:55:55;;;;;;;5.23;2.00;;;9.00;99.90;;;;;;5053062;28;20528;-80
2023/10/22 04:58:21;;;;;;;2.60;1.93;;;8.80;99.90;;;;;;5035391;28;20231;-80
2023/10/22 05:00:47;;;;;;;3.33;1.60;;;8.90;99.90;;;;;;5033715;28;20178;-80
2023/10/22 05:03:13;;;;;;;5.90;2.03;;;;;;;;;;5032662;28;20733;-81
2023/10/22 05:05:39;;;;;;;3.17;2.07;;;9.00;99.90;;;;;;5033502;28;20185;-81
2023/10/22 05:08:07;;;;;;;4.47;2.10;;;9.10;99.90;;;;;;5033096;28;20182;-82
2023/10/22 05:10:38;;;;;;;2.93;1.43;;;9.10;99.90;;;;;;5032806;28;20189;-82
2023/10/22 05:13:04;;;;;;;5.13;2.20;;;;;;;;;;5033214;28;20185;-82
2023/10/22 05:15:30;;;;;;;5.20;1.77;;;;;;;;;;5033007;28;20649;-81
2023/10/22 05:17:57;;;;;;;5.60;2.43;;;9.10;99.90;;;;;;5032971;28;20256;-80
2023/10/22 05:20:27;;;;;;;4.10;2.00;;;9.20;99.90;;;;;;5034597;28;20238;-81
2023/10/22 05:22:53;;;;;;;4.40;1.97;;;9.20;99.90;;;;;;5040332;28;20213;-82
2023/10/22 05:25:21;;;;;;;7.53;2.07;;;9.30;99.90;;;;;;5044486;28;20702;-81
2023/10/22 05:27:47;;;;;;;5.83;2.07;;;9.20;99.90;;;;;;5042969;28;20178;-81
2023/10/22 05:30:14;;;;;;;3.70;2.20;;;8.90;99.90;;;;;;5034067;28;20273;-81
2023/10/22 05:32:40;;;;;;;7.27;2.20;;;;;;;;;;5033778;28;20185;-81
2023/10/22 05:35:07;;;;;;;5.63;2.20;;;8.80;99.90;;;;;;5033116;28;20166;-81
2023/10/22 05:37:33;;;;;;;5.60;2.10;;;8.90;99.90;;;;;;5032845;28;20185;-79
2023/10/22 05:39:59;;;;;;;4.10;1.90;;;;;;;;;;5032392;28;20236;-79
2023/10/22 05:42:26;;;;;;;5.27;2.00;;;9.20;99.90;;;;;;5032071;28;20352;-79
2023/10/22 05:44:52;;;;;;;3.83;1.90;;;;;;;;;;5032574;28;20189;-79
2023/10/22 05:47:18;;;;;;;6.63;2.30;;;;;;;;;;5032818;28;20174;-79
2023/10/22 05:49:44;;;;;;;3.10;2.13;;;;;;;;;;5032627;28;20666;-82
2023/10/22 05:52:10;;;;;;;2.80;1.83;;;9.20;99.90;;;;;;5032585;28;20184;-81
2023/10/22 05:54:36;;;;;;;3.60;2.10;;;;;;;;;;5032759;28;20186;-80
2023/10/22 05:57:02;;;;;;;9.87;2.60;;;8.90;99.90;;;;;;5032641;28;20182;-81
2023/10/22 05:59:28;;;;;;;5.00;2.30;;;9.00;99.90;;;;;;5032294;28;20165;-81
2023/10/22 06:01:54;;;;;;;6.23;2.50;;;;;;;;;;5031249;28;20208;-80
2023/10/22 06:04:20;;;;;;;9.23;2.60;;;;;;;;;;5031969;28;20636;-81
2023/10/22 06:06:46;;;;;;;4.33;2.20;;;8.80;99.90;;;;;;5012255;28;20178;-81
2023/10/22 06:09:12;;;;;;;4.73;2.57;;;8.70;99.90;;;;;;4994587;28;20178;-81
2023/10/22 06:11:38;;;;;;;6.37;2.27;;;8.60;99.90;;;;;;5012329;28;20170;-81
2023/10/22 06:14:04;;;;;;;6.97;2.47;;;8.60;99.90;;;;;;5025787;28;20184;-81
2023/10/22 06:16:31;;;;;;;3.97;2.50;;;8.60;99.90;;;;;;5031750;28;20184;-81
2023/10/22 06:18:57;;;;;;;6.93;2.67;;;8.60;99.90;;;;;;5031643;28;20189;-81
2023/10/22 06:21:22;;;;;;;7.67;2.50;;;9.90;99.90;;;;;;5031525;28;20213;-81
2023/10/22 06:23:49;;;;;;;3.77;2.10;;;8.40;99.90;;;;;;5031324;28;20252;-82
2023/10/22 06:26:15;;;;;;;5.30;2.20;;;8.80;99.90;;;;;;5013955;28;20170;-81
2023/10/22 06:28:41;;;;;;;3.77;1.80;;;9.50;99.90;;;;;;5031370;28;20174;-81
2023/10/22 06:31:08;;;;;;;4.80;1.80;;;8.40;99.90;;;;;;5031563;28;20532;-81
2023/10/22 06:33:35;;;;;;;7.87;2.20;;;9.20;99.90;;;;;;5031576;28;20186;-81
2023/10/22 06:36:14;;;;;;;6.50;2.73;;;8.30;99.90;;;;;;5031746;28;20173;-81
2023/10/22 06:38:41;;;;;;;8.57;2.00;;;8.20;99.90;;;;;;5031735;28;20173;-79
2023/10/22 06:41:13;;;;;;;3.07;1.83;;;9.70;99.90;;;;;;5008303;28;20175;-79
2023/10/22 06:43:39;;;;;;;3.93;2.07;;;8.20;99.90;;;;;;5026574;28;20676;-79
2023/10/22 06:46:04;;;;;;;4.07;2.00;;;7.70;99.90;;;;;;5030844;28;20185;-79
2023/10/22 06:48:30;;;;;;;6.27;2.10;;;9.00;99.90;;;;;;5031611;28;20162;-79
2023/10/22 06:50:55;;;;;;;4.97;2.40;;;8.00;99.90;;;;;;5014003;28;20181;-79
2023/10/22 06:53:21;;;;;;;4.30;1.97;;;8.50;99.90;;;;;;5031390;28;20312;-81
2023/10/22 06:55:47;;;;;;;3.10;1.70;;;8.40;99.90;;;;;;5031636;28;20186;-80
2023/10/22 06:58:12;;;;;;;6.63;2.13;;;10.60;99.90;;;;;;5030829;28;20170;-78
2023/10/22 07:00:38;;;;;;;4.27;1.90;;;8.30;99.90;;;;;;5031050;28;20173;-79
2023/10/22 07:03:03;;;;;;;5.63;2.23;;;8.60;99.90;;;;;;5030769;28;20205;-76
2023/10/22 07:05:29;;;;;;;6.73;2.27;;;9.70;99.90;;;;;;5030293;28;20170;-76
2023/10/22 07:07:55;;;;;;;5.23;2.17;;;8.60;99.90;;;;;;5030896;28;20583;-76
2023/10/22 07:10:21;;;;;;;7.27;2.40;;;8.70;99.90;;;;;;5031474;28;20256;-76
2023/10/22 07:12:46;;;;;;;6.73;2.40;;;8.70;99.90;;;;;;5031997;28;20564;-76
2023/10/22 07:15:12;;;;;;;4.97;2.27;;;9.20;99.90;;;;;;5035282;28;20174;-77
2023/10/22 07:17:39;;;;;;;4.10;1.90;;;8.90;99.90;;;;;;5043922;28;20176;-76
2023/10/22 07:20:06;;;;;;;6.17;2.00;;;8.90;99.90;;;;;;5058155;28;20169;-76
2023/10/22 07:22:32;;;;;;;7.17;2.10;;;;;;;;;;5042404;28;20263;-76
2023/10/22 07:24:58;;;;;;;5.37;2.20;;;;;;;;;;5018610;28;20698;-75
2023/10/22 07:27:23;;;;;;;4.00;2.10;;;8.70;99.90;;;;;;5035348;28;20182;-76
2023/10/22 07:29:49;;;;;;;5.73;2.20;;;8.90;99.90;;;;;;5035138;28;20166;-76
2023/10/22 07:32:15;;;;;;;4.70;2.03;;;;;;;;;;5034827;28;20170;-76
2023/10/22 07:34:41;;;;;;;3.27;1.77;;;9.20;99.90;;;;;;5034779;28;20182;-75
2023/10/22 07:37:06;;;;;;;4.57;1.63;;;9.40;99.90;;;;;;5034904;28;20243;-74
2023/10/22 07:39:32;;;;;;;6.97;1.70;;;9.30;99.90;;;;;;5034627;28;20294;-75
2023/10/22 07:41:59;;;;;;;5.20;1.70;;;9.10;99.90;;;;;;5035097;28;20639;-76
2023/10/22 07:44:25;;;;;;;4.67;1.90;;;;;;;;;;5033793;28;20236;-76
2023/10/22 07:46:51;;;;;;;4.83;2.17;;;9.10;99.90;;;;;;5033576;28;20220;-75
2023/10/22 07:49:16;;;;;;;4.73;2.17;;;9.30;99.90;;;;;;5034413;28;20178;-75
2023/10/22 07:51:43;;;;;;;6.13;1.90;;;9.20;99.90;;;;;;5034134;28;20268;-75
2023/10/22 07:54:08;;;;;;;2.70;1.90;;;9.50;99.90;;;;;;5034369;28;20178;-75
2023/10/22 07:56:34;;;;;;;6.47;2.30;;;9.70;99.90;;;;;;5034154;28;20173;-75
2023/10/22 07:59:00;;;;;;;8.43;2.00;;;9.30;99.90;;;;;;5033704;28;20264;-75
2023/10/22 08:01:26;;;;;;;3.57;2.00;;;9.50;99.90;;;;;;5035525;28;20232;-74
2023/10/22 08:03:52;;;;;;;6.70;2.13;;;;;;;;;;5034100;28;20528;-75
2023/10/22 08:06:17;;;;;;;3.80;2.00;;;9.80;99.90;;;;;;5024215;28;20186;-75
2023/10/22 08:08:43;;;;;;;5.63;1.93;;;;;;;;;;5015345;28;20210;-75
2023/10/22 08:11:09;;;;;;;4.53;1.50;;;9.90;99.90;;;;;;5014140;28;20229;-76
2023/10/22 08:13:34;;;;;;;4.93;1.07;;;10.10;99.90;;;;;;5014057;28;20170;-75
2023/10/22 08:16:04;;;;;;;2.77;1.30;;;9.80;99.90;;;;;;5029797;28;20197;-76
2023/10/22 08:18:31;;;;;;;3.73;1.27;;;10.00;99.90;;;;;;5038248;28;20256;-75
2023/10/22 08:21:02;;;;;;;3.20;0.93;;;10.10;99.90;;;;;;5033876;28;20221;-73
2023/10/22 08:23:29;;;;;;;3.87;1.30;;;10.40;99.90;;;;;;5033160;28;20216;-73
2023/10/22 08:25:56;;;;;;;4.97;1.00;;;10.30;99.90;;;;;;5031138;28;20568;-73
2023/10/22 08:28:22;;;;;;;2.83;1.00;;;10.40;99.90;;;;;;5033262;28;20192;-73
2023/10/22 08:30:48;;;;;;;4.23;1.30;;;10.30;99.90;;;;;;5032744;28;20542;-74
2023/10/22 08:33:14;;;;;;;2.40;1.20;;;10.40;99.90;;;;;;5024532;28;20185;-75
2023/10/22 08:35:40;;;;;;;5.53;1.40;;;10.50;99.90;;;;;;5033227;28;21085;-72
2023/10/22 08:38:06;;;;;;;5.23;0.90;;;10.60;99.90;;;;;;5032916;28;20169;-73
2023/10/22 08:40:38;;;;;;;3.83;1.23;;;10.70;99.90;;;;;;5032727;28;20201;-73
2023/10/22 08:43:06;;;;;;;2.90;0.80;;;10.80;99.90;;;;;;5033143;28;20212;-72
2023/10/22 08:45:32;;;;;;;3.27;0.87;;;10.90;99.90;;;;;;5032143;28;20308;-73
2023/10/22 08:48:05;;;;;;;2.60;0.90;;;10.70;99.90;;;;;;5033006;28;20193;-72
2023/10/22 08:50:33;;;;;;;2.00;0.70;;;11.20;99.90;;;;;;5032916;28;20182;-73
2023/10/22 08:52:58;;;;;;;2.77;0.80;;;11.20;99.90;;;;;;5033030;28;20201;-73
2023/10/22 08:55:28;;;;;;;3.23;0.80;;;11.40;99.90;;;;;;5032984;28;20212;-73
2023/10/22 08:57:55;;;;;;;2.23;0.60;;;11.40;99.90;;;;;;5032849;28;20268;-74
2023/10/22 09:00:21;;;;;;;2.67;0.60;;;11.40;99.90;;;;;;5029844;28;20190;-75
2023/10/22 09:02:48;;;;;;;3.60;0.80;;;11.30;99.90;;;;;;5012983;28;20206;-74
2023/10/22 09:05:14;;;;;;;4.27;0.80;;;11.30;99.90;;;;;;5031776;28;20182;-75
2023/10/22 09:07:50;;;;;;;3.10;0.97;;;11.60;99.90;;;;;;5031961;28;20584;-74
2023/10/22 09:10:28;;;;;;;6.53;0.97;;;11.30;99.90;;;;;;5032402;28;20173;-75
2023/10/22 09:12:54;;;;;;;5.63;0.93;;;11.40;99.90;;;;;;5031324;28;20187;-76
2023/10/22 09:15:20;;;;;;;4.93;1.20;;;11.50;99.90;;;;;;5032534;28;20174;-76
2023/10/22 09:17:45;;;;;;;2.17;0.90;;;11.70;99.90;;;;;;5032831;28;20232;-76
2023/10/22 09:20:21;;;;;;;4.13;1.10;;;11.80;99.90;;;;;;5032741;28;20192;-76
2023/10/22 09:22:47;;;;;;;5.23;1.20;;;12.00;99.90;;;;;;5032181;28;20213;-73
2023/10/22 09:25:14;;;;;;;4.73;0.97;;;12.10;99.90;;;;;;5032083;28;20632;-74
2023/10/22 09:27:40;;;;;;;4.10;1.07;;;12.30;99.90;;;;;;5032788;28;20178;-74
2023/10/22 09:30:06;;;;;;;5.37;1.00;;;12.50;99.90;;;;;;5028543;28;20193;-76
2023/10/22 09:32:32;;;;;;;5.47;0.83;;;12.60;99.90;;;;;;5022729;28;20175;-75
2023/10/22 09:35:14;;;;;;;2.33;0.70;;;12.70;99.90;;;;;;5013074;28;20269;-76
2023/10/22 09:37:50;;;;;;;2.30;1.03;;;12.80;99.90;;;;;;5012931;28;20186;-75
2023/10/22 09:40:25;;;;;;;5.23;1.30;;;12.90;99.90;;;;;;5022053;28;20223;-75
2023/10/22 09:42:52;;;;;;;5.87;1.20;;;13.00;99.90;;;;;;5014323;28;20224;-75
2023/10/22 09:45:18;;;;;;;2.77;1.47;;;13.10;99.90;;;;;;5049152;28;20768;-76
2023/10/22 09:47:46;;;;;;;6.17;1.33;;;13.20;99.90;;;;;;5055215;28;20149;-75
2023/10/22 09:50:18;;;;;;;4.20;1.57;;;11.30;99.90;;;;;;5033939;28;20166;-75
2023/10/22 09:52:44;;;;;;;5.45;1.20;;;13.40;99.90;;;;;;5032979;28;20220;-75
2023/10/22 09:55:13;;;;;;;3.00;1.08;;;13.50;99.90;;;;;;5030829;28;20170;-76
2023/10/22 09:57:40;;;;;;;3.87;0.80;;;13.80;99.90;;;;;;4998938;28;20266;-74
2023/10/22 10:00:12;;;;;;;6.50;0.63;;;13.90;99.90;;;;;;5028116;28;20198;-75
2023/10/22 10:02:40;;;;;;;2.55;0.63;;;14.10;99.90;;;;;;5032313;28;20710;-75
2023/10/22 10:05:09;;;;;;;5.15;0.80;;;14.30;99.90;;;;;;5014934;28;20174;-75
2023/10/22 10:07:37;;;;;;;6.00;1.00;;;14.50;99.90;;;;;;5029778;28;20197;-76
2023/10/22 10:10:05;;;;;;;1.83;0.63;;;14.90;99.90;;;;;;5033888;28;20781;-75
2023/10/22 10:12:31;;;;;;;3.53;0.60;;;14.90;99.90;;;;;;5032649;28;20178;-75
2023/10/22 10:14:57;;;;;;;6.13;0.75;;;15.00;99.90;;;;;;5030373;28;20547;-75
2023/10/22 10:17:23;;;;;;;2.17;0.50;;;14.80;99.90;;;;;;5030649;28;20249;-75
2023/10/22 10:19:48;;;;;;;4.07;0.77;;;14.90;99.90;;;;;;5029424;28;20685;-75
2023/10/22 10:22:38;;;;;;;3.15;0.65;;;14.90;99.90;;;;;;5009703;28;20250;-76
2023/10/22 10:25:30;;;;;;;4.15;0.60;;;15.00;99.90;;;;;;5011526;28;20248;-75
2023/10/22 10:27:56;;;;;;;5.28;0.80;;;;;;;;;;5011992;28;20170;-75
2023/10/22 10:30:22;;;;;;;5.65;0.50;;;15.10;99.90;;;;;;5011642;28;20210;-76
2023/10/22 10:32:51;;;;;;;5.07;0.85;;;15.10;99.90;;;;;;5011940;28;20174;-78
2023/10/22 10:35:18;;;;;;;4.35;0.60;;;15.00;99.90;;;;;;5011585;28;20171;-76
2023/10/22 10:38:11;;;;;;;4.45;0.70;;;14.80;99.90;;;;;;5010915;28;20273;-76
2023/10/22 10:40:45;;;;;;;3.72;0.80;;;14.90;99.90;;;;;;5011443;28;20549;-75
2023/10/22 10:43:11;;;;;;;1.98;0.60;;;14.90;99.90;;;;;;5011505;28;20215;-75
2023/10/22 10:45:43;;;;;;;4.13;0.60;;;15.00;99.90;;;;;;5011678;28;20618;-75
2023/10/22 10:48:45;;;;;;;3.17;1.05;;;15.20;99.90;;;;;;5008124;28;20210;-75
2023/10/22 10:51:19;;;;;;;3.20;0.75;;;15.40;99.90;;;;;;5008240;28;20204;-75
2023/10/22 10:54:03;;;;;;;10.48;0.80;;;15.60;99.90;;;;;;5010662;28;20192;-74
2023/10/22 10:57:01;;;;;;;5.30;0.90;;;15.60;99.90;;;;;;5011499;28;20221;-75
2023/10/22 10:59:39;;;;;;;3.45;0.73;;;16.00;99.90;;;;;;4979599;28;20191;-74
2023/10/22 11:02:07;;;;;;;4.85;0.63;;;17.00;99.90;;;;;;4992320;28;20211;-73
2023/10/22 11:04:34;;;;;;;3.95;0.82;;;18.90;99.90;;;;;;5011232;28;20606;-74
2023/10/22 11:07:01;;;;;;;3.80;0.63;;;20.20;99.90;;;;;;5011313;28;20198;-73
2023/10/22 11:09:26;;;;;;;2.33;0.63;;;20.10;99.90;;;;;;5009825;28;20178;-73
2023/10/22 11:12:07;;;;;;;4.88;0.80;;;22.00;99.90;;;;;;5011256;28;20228;-73
2023/10/22 11:14:35;;;;;;;3.90;0.93;;;22.90;99.90;;;;;;5017222;28;20663;-73
2023/10/22 11:17:02;;;;;;;3.67;0.80;;;23.30;99.90;;;;;;5012235;28;20182;-74
2023/10/22 11:19:29;;;;;;;2.10;0.70;;;25.50;1.00;;;;;;5011771;28;20233;-74
2023/10/22 11:21:55;;;;;;;2.13;0.60;;;25.40;1.00;;;;;;5022719;28;20217;-73
2023/10/22 11:24:32;;;;;;;4.90;0.90;;;26.10;1.00;;;;;;5030860;28;20201;-73
2023/10/22 11:27:00;;;;;;;6.15;1.05;;;25.50;99.90;;;;;;5030455;28;20632;-73
2023/10/22 11:29:26;;;;;;;1.55;0.60;;;25.30;1.00;;;;;;5030670;28;20189;-75
2023/10/22 11:32:00;;;;;;;4.57;0.88;;;25.30;1.00;;;;;;5028942;28;20654;-74
2023/10/22 11:34:26;;;;;;;5.28;0.75;;;25.40;99.90;;;;;;5030452;28;20182;-73
2023/10/22 11:36:59;;;;;;;6.15;1.20;;;25.60;97.50;;;;;;5030423;28;20189;-74
2023/10/22 11:39:34;;;;;;;4.55;0.90;;;26.70;99.90;;;;;;5029654;28;20164;-74
2023/10/22 11:42:03;;;;;;;3.35;1.10;;;26.70;1.00;;;;;;5029791;28;20198;-74
2023/10/22 11:44:30;;;;;;;4.05;0.93;;;26.40;1.00;;;;;;5030386;28;20205;-74
2023/10/22 11:47:17;;;;;;;4.47;1.35;;;27.30;1.00;;;;;;5030534;28;20170;-73
2023/10/22 11:49:45;;;;;;;3.17;1.10;;;27.90;99.90;;;;;;5011923;28;20205;-74
2023/10/22 11:52:39;;;;;;;6.10;1.15;;;28.00;1.00;;;;;;5028969;28;20193;-73
2023/10/22 11:55:09;;;;;;;5.38;1.15;;;25.00;99.90;;;;;;5028805;28;20560;-73
2023/10/22 11:57:38;;;;;;;6.93;1.15;;;25.10;1.00;;;;;;5011853;28;20637;-73
2023/10/22 12:00:09;;;;;;;4.80;1.13;;;25.80;1.00;;;;;;5029824;28;20204;-74
2023/10/22 12:02:35;;;;;;;5.80;1.17;;;26.10;1.00;;;;;;5032309;28;20201;-73
2023/10/22 12:05:01;;;;;;;6.95;1.55;;;27.30;1.00;;;;;;5033809;28;20189;-73
2023/10/22 12:07:27;;;;;;;7.53;1.27;;;26.60;1.00;;;;;;5034305;28;20174;-74
2023/10/22 12:09:53;;;;;;;5.85;1.20;;;26.20;99.90;;;;;;5034177;28;20667;-74
2023/10/22 12:12:20;;;;;;;4.30;1.17;;;26.10;94.70;;;;;;5035774;28;20174;-74
2023/10/22 12:14:46;;;;;;;8.68;1.45;;;27.30;95.40;;;;;;5040041;28;20174;-74
2023/10/22 12:17:12;;;;;;;4.82;1.38;;;27.60;1.00;;;;;;5045704;28;20197;-74
2023/10/22 12:19:38;;;;;;;7.05;1.38;;;27.80;1.00;;;;;;5034252;28;20185;-74
2023/10/22 12:22:05;;;;;;;5.43;1.20;;;27.80;1.00;;;;;;5033760;28;20695;-74
2023/10/22 12:24:31;;;;;;;4.22;1.17;;;28.60;1.00;;;;;;5034959;28;20170;-74
2023/10/22 12:26:57;;;;;;;6.82;1.50;;;25.00;99.90;;;;;;5034862;28;20674;-73
2023/10/22 12:29:23;;;;;;;5.00;1.00;;;22.60;1.00;;;;;;5033339;28;20182;-74
2023/10/22 12:31:48;;;;;;;8.10;1.35;;;20.50;29.70;;;;;;5033475;28;20170;-74
2023/10/22 12:34:14;;;;;;;7.15;1.23;;;19.30;1.00;;;;;;5033371;28;20650;-74
2023/10/22 12:36:39;;;;;;;11.70;1.98;;;18.60;99.90;;;;;;5033558;28;20264;-73
2023/10/22 12:39:07;;;;;;;8.05;1.23;;;21.20;94.00;;;;;;5033513;28;20174;-74
2023/10/22 12:41:33;;;;;;;4.03;1.25;;;20.70;99.90;;;;;;5013795;28;20224;-73
2023/10/22 12:43:59;;;;;;;5.70;1.15;;;19.10;1.00;;;;;;5012282;28;20221;-74
2023/10/22 12:46:25;;;;;;;7.88;1.63;;;18.60;99.90;;;;;;5013517;28;20174;-74
2023/10/22 12:48:52;;;;;;;6.40;1.05;;;18.30;1.00;;;;;;5013946;28;20174;-74
2023/10/22 12:51:18;;;;;;;5.50;1.13;;;18.10;99.90;;;;;;5013581;28;20175;-74
2023/10/22 12:53:46;;;;;;;6.35;1.20;;;17.60;1.00;;;;;;5013587;28;20201;-74
2023/10/22 12:56:13;;;;;;;9.95;1.40;;;17.60;99.90;;;;;;5013532;28;20182;-74
2023/10/22 12:58:39;;;;;;;8.32;1.23;;;17.30;99.90;;;;;;5013500;28;20225;-74
2023/10/22 13:01:06;;;;;;;5.68;1.08;;;17.40;1.00;;;;;;5012247;28;20178;-73
2023/10/22 13:03:31;;;;;;;6.97;1.02;;;17.40;1.00;;;;;;5013767;28;20276;-74
2023/10/22 13:06:04;;;;;;;5.70;1.08;;;17.30;1.00;;;;;;5013350;28;20641;-74
2023/10/22 13:08:30;;;;;;;7.75;1.05;;;17.00;1.00;;;;;;5013460;28;20214;-73
2023/10/22 13:10:58;;;;;;;9.77;1.13;;;16.80;1.00;;;;;;5012858;28;20167;-74
2023/10/22 13:13:23;;;;;;;7.25;1.70;;;16.80;96.70;;;;;;4995500;28;20569;-74
2023/10/22 13:15:49;;;;;;;7.53;1.20;;;16.40;1.00;;;;;;5013048;28;20163;-74